Time;durP1;ratioP1;P1;durP2;ratioP2;P2;SDS_P1;SDS_P2;PMS_P1;PMS_P2;Temp;Humidity;BMP_temperature;BMP_pressure;BME280_temperature;BME280_humidity;BME280_pressure;Samples;Min_cycle;Max_cycle;Signal;HPM_P1;HPM_P2
2022/11/04 00:02:02;;;;;;;1999.90;999.90;;;11.50;99.90;;;;;;5052214;28;20912;-66
2022/11/04 00:04:28;;;;;;;1999.90;999.90;;;11.40;99.90;;;;;;5052078;28;20237;-66
2022/11/04 00:06:55;;;;;;;1999.90;999.90;;;11.40;99.90;;;;;;5052013;28;20398;-66
2022/11/04 00:09:22;;;;;;;1999.90;999.90;;;11.40;99.90;;;;;;5051980;28;20437;-67
2022/11/04 00:14:33;;;;;;;1999.90;999.90;;;11.40;99.90;;;;;;5052284;28;20428;-67
2022/11/04 00:33:24;;;;;;;1999.90;999.90;;;11.50;99.90;;;;;;5052002;28;20810;-67
2022/11/04 00:33:43;;;;;;;1999.90;999.90;;;11.50;99.90;;;;;;5051510;28;20479;-66
2022/11/04 00:36:09;;;;;;;1999.90;999.90;;;11.50;99.90;;;;;;5051788;28;20970;-66
2022/11/04 00:38:34;;;;;;;1999.90;999.90;;;11.50;99.90;;;;;;5051532;28;20764;-66
2022/11/04 00:41:00;;;;;;;1999.90;999.90;;;11.50;99.90;;;;;;5051731;28;20220;-66
2022/11/04 00:43:26;;;;;;;1999.90;999.90;;;11.60;99.90;;;;;;5051604;28;20202;-67
2022/11/04 00:45:51;;;;;;;1999.90;999.90;;;11.60;99.90;;;;;;5051376;28;20163;-66
2022/11/04 00:48:17;;;;;;;1999.90;999.90;;;11.60;99.90;;;;;;5051179;28;20171;-66
2022/11/04 00:50:42;;;;;;;1999.90;999.90;;;11.50;99.90;;;;;;5052138;28;20538;-66
2022/11/04 00:53:08;;;;;;;1999.90;999.90;;;11.50;99.90;;;;;;5055628;28;20203;-67
2022/11/04 00:55:34;;;;;;;1999.90;999.90;;;11.50;99.90;;;;;;5055585;28;20222;-66
2022/11/04 00:57:59;;;;;;;1999.90;999.90;;;11.50;99.90;;;;;;5055431;28;20545;-66
2022/11/04 01:00:25;;;;;;;1999.90;999.90;;;11.40;99.90;;;;;;5055701;28;20481;-67
2022/11/04 01:02:51;;;;;;;1999.90;999.90;;;11.40;99.90;;;;;;5055344;28;20191;-66
2022/11/04 01:05:16;;;;;;;1999.90;999.90;;;11.40;99.90;;;;;;5055468;28;20168;-66
2022/11/04 01:07:42;;;;;;;1999.90;999.90;;;11.40;99.90;;;;;;5055139;28;20255;-67
2022/11/04 01:10:08;;;;;;;1999.90;999.90;;;11.30;99.90;;;;;;5055401;28;20174;-66
2022/11/04 01:12:33;;;;;;;1999.90;999.90;;;11.30;99.90;;;;;;5055297;28;20175;-67
2022/11/04 01:14:59;;;;;;;1999.90;999.90;;;11.20;99.90;;;;;;5055184;28;20437;-66
2022/11/04 01:17:25;;;;;;;1999.90;999.90;;;11.20;99.90;;;;;;5054949;28;20757;-67
2022/11/04 01:19:50;;;;;;;1999.90;999.90;;;11.10;99.90;;;;;;5055161;28;20206;-66
2022/11/04 01:22:16;;;;;;;1999.90;999.90;;;11.10;99.90;;;;;;5054950;28;20220;-67
2022/11/04 01:24:41;;;;;;;1999.90;999.90;;;11.10;99.90;;;;;;5055115;28;20210;-67
2022/11/04 01:27:07;;;;;;;1999.90;999.90;;;11.10;99.90;;;;;;5054763;28;20192;-66
2022/11/04 01:29:32;;;;;;;1999.90;999.90;;;11.10;99.90;;;;;;5054928;28;20174;-67
2022/11/04 01:31:58;;;;;;;1999.90;999.90;;;11.10;99.90;;;;;;5054971;28;20164;-66
2022/11/04 01:34:24;;;;;;;1999.90;999.90;;;11.10;99.90;;;;;;5054887;28;20217;-66
2022/11/04 01:36:49;;;;;;;1999.90;999.90;;;11.10;99.90;;;;;;5054627;28;20344;-67
2022/11/04 01:39:15;;;;;;;1999.90;999.90;;;11.10;99.90;;;;;;5054842;28;20171;-67
2022/11/04 01:41:40;;;;;;;1999.90;999.90;;;11.00;99.90;;;;;;5054884;28;20194;-66
2022/11/04 01:44:40;;;;;;;1999.90;999.90;;;11.00;99.90;;;;;;5054609;28;20549;-66
2022/11/04 01:47:10;;;;;;;1999.90;999.90;;;10.90;99.90;;;;;;5054143;28;20205;-67
2022/11/04 01:49:38;;;;;;;1999.90;999.90;;;10.80;99.90;;;;;;5054475;28;20475;-66
2022/11/04 01:52:12;;;;;;;1999.90;999.90;;;10.80;99.90;;;;;;5054460;28;21153;-66
2022/11/04 01:54:40;;;;;;;1999.90;999.90;;;10.80;99.90;;;;;;5054544;28;20405;-67
2022/11/04 01:57:10;;;;;;;1999.90;999.90;;;10.80;99.90;;;;;;5054172;28;20476;-66
2022/11/04 01:59:39;;;;;;;1999.90;999.90;;;10.70;99.90;;;;;;5054431;28;20457;-69
2022/11/04 02:02:06;;;;;;;1999.90;999.90;;;10.80;99.90;;;;;;5053870;28;20414;-67
2022/11/04 02:04:32;;;;;;;1999.90;999.90;;;10.80;99.90;;;;;;5053904;28;20460;-68
2022/11/04 02:07:05;;;;;;;1999.90;999.90;;;10.80;99.90;;;;;;5054109;28;20745;-67
2022/11/04 02:09:32;;;;;;;1999.90;999.90;;;10.80;99.90;;;;;;5054143;28;20466;-67
2022/11/04 02:14:45;;;;;;;1999.90;999.90;;;10.70;99.90;;;;;;5054501;28;20463;-68
2022/11/04 02:17:16;;;;;;;1999.90;999.90;;;10.70;99.90;;;;;;5053773;28;20544;-68
2022/11/04 02:19:51;;;;;;;1999.90;999.90;;;10.60;99.90;;;;;;5054645;28;20417;-68
2022/11/04 02:22:25;;;;;;;1999.90;999.90;;;10.50;99.90;;;;;;5053826;28;20459;-65
2022/11/04 02:25:08;;;;;;;1999.90;999.90;;;10.50;99.90;;;;;;5053991;28;20404;-66
2022/11/04 02:28:03;;;;;;;1999.90;999.90;;;10.50;99.90;;;;;;5053613;28;20401;-67
2022/11/04 02:30:37;;;;;;;1999.90;999.90;;;10.50;99.90;;;;;;5048218;28;20418;-66
2022/11/04 02:33:24;;;;;;;1999.90;999.90;;;10.50;99.90;;;;;;5053780;28;20450;-66
2022/11/04 02:36:11;;;;;;;1999.90;999.90;;;10.40;99.90;;;;;;5053627;28;20461;-66
2022/11/04 02:38:41;;;;;;;1999.90;999.90;;;10.40;99.90;;;;;;5053880;28;20406;-68
2022/11/04 02:41:16;;;;;;;1999.90;999.90;;;10.40;99.90;;;;;;5054217;28;20412;-67
2022/11/04 02:43:48;;;;;;;1999.90;999.90;;;10.40;99.90;;;;;;5053871;28;20417;-67
2022/11/04 02:46:21;;;;;;;1999.90;999.90;;;10.40;99.90;;;;;;5053239;28;20417;-66
2022/11/04 02:48:48;;;;;;;1999.90;999.90;;;10.30;99.90;;;;;;5053037;28;20432;-66
2022/11/04 02:51:36;;;;;;;1999.90;999.90;;;10.20;99.90;;;;;;5053455;28;20451;-66
2022/11/04 02:54:16;;;;;;;1999.90;999.90;;;10.20;99.90;;;;;;5053415;28;20469;-67
2022/11/04 02:56:47;;;;;;;1999.90;999.90;;;10.20;99.90;;;;;;5053047;28;20460;-66
2022/11/04 02:59:39;;;;;;;1999.90;999.90;;;10.20;99.90;;;;;;5053279;28;20447;-66
2022/11/04 03:02:09;;;;;;;1999.90;999.90;;;10.10;99.90;;;;;;5046658;28;20788;-66
2022/11/04 03:04:42;;;;;;;1999.90;999.90;;;10.10;99.90;;;;;;5053384;28;20895;-67
2022/11/04 03:07:13;;;;;;;1999.90;999.90;;;10.10;99.90;;;;;;5053325;28;20492;-66
2022/11/04 03:09:45;;;;;;;1999.90;999.90;;;10.10;99.90;;;;;;5053246;28;20453;-66
2022/11/04 03:12:14;;;;;;;1999.90;999.90;;;10.00;99.90;;;;;;5052997;28;20410;-66
2022/11/04 03:14:53;;;;;;;1999.90;999.90;;;10.10;99.90;;;;;;5052086;28;20409;-66
2022/11/04 03:17:55;;;;;;;1999.90;999.90;;;10.10;99.90;;;;;;5052716;28;20460;-66
2022/11/04 03:20:26;;;;;;;1999.90;999.90;;;10.00;99.90;;;;;;5029279;28;20412;-66
2022/11/04 03:22:58;;;;;;;1999.90;999.90;;;9.90;99.90;;;;;;5052689;28;20819;-66
2022/11/04 03:25:26;;;;;;;1999.90;999.90;;;9.90;99.90;;;;;;5052930;28;20421;-66
2022/11/04 03:28:29;;;;;;;1999.90;999.90;;;9.90;99.90;;;;;;5052431;28;20452;-66
2022/11/04 03:30:58;;;;;;;1999.90;999.90;;;9.80;99.90;;;;;;5052681;28;20438;-67
2022/11/04 03:33:41;;;;;;;1999.90;999.90;;;9.70;99.90;;;;;;5052563;28;20507;-66
2022/11/04 03:36:07;;;;;;;1999.90;999.90;;;9.60;99.90;;;;;;5052475;28;20813;-67
2022/11/04 03:38:34;;;;;;;1999.90;999.90;;;9.60;99.90;;;;;;5052365;28;20752;-66
2022/11/04 03:41:03;;;;;;;1999.90;999.90;;;9.60;99.90;;;;;;5052501;28;20400;-66
2022/11/04 03:43:30;;;;;;;1999.90;999.90;;;9.40;99.90;;;;;;5052363;28;20428;-66
2022/11/04 03:45:56;;;;;;;1999.90;999.90;;;9.40;99.90;;;;;;5052354;28;20821;-66
2022/11/04 03:48:23;;;;;;;1999.90;999.90;;;9.40;99.90;;;;;;5052029;28;20898;-66
2022/11/04 03:50:50;;;;;;;1999.90;999.90;;;9.40;99.90;;;;;;5052322;28;20778;-66
2022/11/04 03:53:24;;;;;;;1999.90;999.90;;;9.30;99.90;;;;;;5052443;28;20428;-68
2022/11/04 03:56:10;;;;;;;1999.90;999.90;;;9.30;99.90;;;;;;5052193;28;20452;-67
2022/11/04 03:58:47;;;;;;;1999.90;999.90;;;9.30;99.90;;;;;;5052069;28;20398;-67
2022/11/04 04:01:22;;;;;;;1999.90;999.90;;;9.20;99.90;;;;;;5052104;28;20409;-68
2022/11/04 04:04:05;;;;;;;1999.90;999.90;;;9.20;99.90;;;;;;5052140;28;20554;-66
2022/11/04 04:06:34;;;;;;;1999.90;999.90;;;9.20;99.90;;;;;;5052312;28;20926;-67
2022/11/04 04:09:10;;;;;;;1999.90;999.90;;;9.10;99.90;;;;;;5052108;28;20403;-68
2022/11/04 04:11:40;;;;;;;1999.90;999.90;;;9.10;99.90;;;;;;5052133;28;20914;-66
2022/11/04 04:14:40;;;;;;;1999.90;999.90;;;9.10;99.90;;;;;;5051961;28;20432;-66
2022/11/04 04:17:25;;;;;;;1999.90;999.90;;;9.00;99.90;;;;;;5051704;28;20786;-67
2022/11/04 04:20:03;;;;;;;1999.90;999.90;;;9.00;99.90;;;;;;5051991;28;20427;-67
2022/11/04 04:22:33;;;;;;;1999.90;999.90;;;8.90;99.90;;;;;;5051758;28;20435;-67
2022/11/04 04:27:51;;;;;;;1999.90;999.90;;;8.80;99.90;;;;;;5052064;28;20500;-67
2022/11/04 04:30:17;;;;;;;1999.90;999.90;;;8.70;99.90;;;;;;5051744;28;20894;-66
2022/11/04 04:32:46;;;;;;;1999.90;999.90;;;8.70;99.90;;;;;;5051728;28;20435;-66
2022/11/04 04:46:30;;;;;;;1999.90;999.90;;;8.60;99.90;;;;;;5052091;28;20446;-67
2022/11/04 04:49:06;;;;;;;1999.90;999.90;;;8.60;99.90;;;;;;5051620;28;20408;-67
2022/11/04 04:51:33;;;;;;;1999.90;999.90;;;8.60;99.90;;;;;;5051833;28;20389;-67
2022/11/04 04:53:58;;;;;;;1999.90;999.90;;;8.70;99.90;;;;;;5051536;28;20424;-66
2022/11/04 04:56:24;;;;;;;1999.90;999.90;;;8.70;99.90;;;;;;5051406;28;20828;-66
2022/11/04 04:58:50;;;;;;;1999.90;999.90;;;8.80;99.90;;;;;;5051432;28;20175;-67
2022/11/04 05:01:15;;;;;;;1999.90;999.90;;;8.80;99.90;;;;;;5051544;28;20165;-67
2022/11/04 05:03:41;;;;;;;1999.90;999.90;;;8.70;99.90;;;;;;5051433;28;20212;-67
2022/11/04 05:06:06;;;;;;;1999.90;999.90;;;8.70;99.90;;;;;;5051488;28;20169;-67
2022/11/04 05:08:34;;;;;;;1999.90;999.90;;;8.60;99.90;;;;;;5051303;28;20169;-67
2022/11/04 05:11:00;;;;;;;1999.90;999.90;;;8.60;99.90;;;;;;5051491;28;20169;-66
2022/11/04 05:13:25;;;;;;;1999.90;999.90;;;8.50;99.90;;;;;;5051307;28;20434;-66
2022/11/04 05:15:51;;;;;;;1999.90;999.90;;;8.40;99.90;;;;;;5051278;28;20844;-67
2022/11/04 05:18:17;;;;;;;1999.90;999.90;;;8.40;99.90;;;;;;5051199;28;20170;-66
2022/11/04 05:20:43;;;;;;;1999.90;999.90;;;8.40;99.90;;;;;;5051481;28;20979;-66
2022/11/04 05:23:11;;;;;;;1999.90;999.90;;;8.30;99.90;;;;;;5051163;28;20261;-66
2022/11/04 05:25:38;;;;;;;1999.90;999.90;;;8.20;99.90;;;;;;5051399;28;20264;-67
2022/11/04 05:28:04;;;;;;;1999.90;999.90;;;8.10;99.90;;;;;;5051214;28;20458;-67
2022/11/04 05:30:30;;;;;;;1999.90;999.90;;;8.10;99.90;;;;;;5051323;28;20489;-68
2022/11/04 05:32:56;;;;;;;1999.90;999.90;;;8.10;99.90;;;;;;5051202;28;20551;-67
2022/11/04 05:35:22;;;;;;;1999.90;999.90;;;8.00;99.90;;;;;;5051216;28;20485;-67
2022/11/04 05:37:48;;;;;;;1999.90;999.90;;;8.10;99.90;;;;;;5051872;28;20447;-66
2022/11/04 05:40:13;;;;;;;1999.90;999.90;;;8.20;99.90;;;;;;5054878;28;20195;-66
2022/11/04 05:42:39;;;;;;;1999.90;999.90;;;8.10;99.90;;;;;;5054757;28;20204;-66
2022/11/04 05:45:05;;;;;;;1999.90;999.90;;;8.20;99.90;;;;;;5054995;28;20174;-67
2022/11/04 05:47:31;;;;;;;1999.90;999.90;;;8.20;99.90;;;;;;5054462;28;20181;-66
2022/11/04 05:49:56;;;;;;;1999.90;999.90;;;8.30;99.90;;;;;;5054765;28;20405;-67
2022/11/04 05:52:22;;;;;;;1999.90;999.90;;;8.40;99.90;;;;;;5054447;28;20197;-66
2022/11/04 05:54:47;;;;;;;1999.90;999.90;;;8.40;99.90;;;;;;5054549;28;20177;-66
2022/11/04 05:57:13;;;;;;;1999.90;999.90;;;8.40;99.90;;;;;;5054279;28;20694;-66
2022/11/04 05:59:39;;;;;;;1999.90;999.90;;;8.40;99.90;;;;;;5054365;28;20166;-66
2022/11/04 06:02:04;;;;;;;1999.90;999.90;;;8.40;99.90;;;;;;5054351;28;20164;-67
2022/11/04 06:04:31;;;;;;;1999.90;999.90;;;8.30;99.90;;;;;;5054493;28;20190;-66
2022/11/04 06:06:56;;;;;;;1999.90;999.90;;;8.30;99.90;;;;;;5054085;28;20175;-66
2022/11/04 06:09:37;;;;;;;1999.90;999.90;;;8.30;99.90;;;;;;5054169;28;20824;-66
2022/11/04 06:12:13;;;;;;;1999.90;999.90;;;8.30;99.90;;;;;;5054327;28;20201;-67
2022/11/04 06:14:39;;;;;;;1999.90;999.90;;;8.30;99.90;;;;;;5054122;28;20409;-66
2022/11/04 06:17:05;;;;;;;1999.90;999.90;;;8.30;99.90;;;;;;5053898;28;21039;-67
2022/11/04 06:19:30;;;;;;;1999.90;999.90;;;8.20;99.90;;;;;;5054002;28;20575;-68
2022/11/04 06:21:56;;;;;;;1999.90;999.90;;;8.20;99.90;;;;;;5053917;28;20162;-67
2022/11/04 06:24:22;;;;;;;1999.90;999.90;;;8.20;99.90;;;;;;5054035;28;20541;-67
2022/11/04 06:26:47;;;;;;;1999.90;999.90;;;8.20;99.90;;;;;;5053777;28;20230;-67
2022/11/04 06:29:13;;;;;;;1999.90;999.90;;;8.10;99.90;;;;;;5053903;28;20192;-66
2022/11/04 06:31:38;;;;;;;1999.90;999.90;;;8.00;99.90;;;;;;5053951;28;20256;-68
2022/11/04 06:34:04;;;;;;;1999.90;999.90;;;7.90;99.90;;;;;;5054094;28;20677;-67
2022/11/04 06:36:30;;;;;;;1999.90;999.90;;;7.90;99.90;;;;;;5053654;28;20236;-66
2022/11/04 06:38:55;;;;;;;1999.90;999.90;;;7.90;99.90;;;;;;5053719;28;20437;-66
2022/11/04 06:41:21;;;;;;;1999.90;999.90;;;7.90;99.90;;;;;;5053715;28;20173;-66
2022/11/04 06:43:47;;;;;;;1999.90;999.90;;;7.90;99.90;;;;;;5053565;28;20186;-66
2022/11/04 06:46:26;;;;;;;1999.90;999.90;;;7.90;99.90;;;;;;5053744;28;20310;-66
2022/11/04 06:48:52;;;;;;;1999.90;999.90;;;7.90;99.90;;;;;;5053200;28;20188;-67
2022/11/04 06:51:18;;;;;;;1999.90;999.90;;;8.00;99.90;;;;;;5054067;28;20411;-67
2022/11/04 06:53:43;;;;;;;1999.90;999.90;;;8.10;99.90;;;;;;5053434;28;20488;-66
2022/11/04 06:56:09;;;;;;;1999.90;999.90;;;8.30;99.90;;;;;;5053466;28;20236;-67
2022/11/04 06:58:34;;;;;;;1999.90;999.90;;;8.40;99.90;;;;;;5053228;28;20176;-66
2022/11/04 07:01:00;;;;;;;1999.90;999.90;;;8.50;99.90;;;;;;5053511;28;20184;-67
2022/11/04 07:03:26;;;;;;;1999.90;999.90;;;8.40;99.90;;;;;;5053253;28;20226;-66
2022/11/04 07:05:52;;;;;;;1999.90;999.90;;;8.40;99.90;;;;;;5053445;28;20506;-67
2022/11/04 07:08:17;;;;;;;1999.90;999.90;;;8.40;99.90;;;;;;5053241;28;20177;-68
2022/11/04 07:10:43;;;;;;;1999.90;999.90;;;8.30;99.90;;;;;;5053455;28;20190;-67
2022/11/04 07:13:09;;;;;;;1999.90;999.90;;;8.40;99.90;;;;;;5053282;28;20211;-67
2022/11/04 07:15:36;;;;;;;1999.90;999.90;;;8.50;99.90;;;;;;5053333;28;20205;-67
2022/11/04 07:18:02;;;;;;;1999.90;999.90;;;8.60;99.90;;;;;;5053112;28;20171;-67
2022/11/04 07:20:28;;;;;;;1999.90;999.90;;;8.50;99.90;;;;;;5053104;28;20438;-67
2022/11/04 07:22:53;;;;;;;1999.90;999.90;;;8.60;99.90;;;;;;5053123;28;20208;-67
2022/11/04 07:25:19;;;;;;;1999.90;999.90;;;8.70;99.90;;;;;;5053272;28;20542;-68
2022/11/04 07:27:45;;;;;;;1999.90;999.90;;;8.80;99.90;;;;;;5052789;28;20411;-66
2022/11/04 07:30:11;;;;;;;1999.90;999.90;;;8.80;99.90;;;;;;5052736;28;20175;-66
2022/11/04 07:32:36;;;;;;;1999.90;999.90;;;8.90;99.90;;;;;;5053166;28;20223;-66
2022/11/04 07:35:02;;;;;;;1999.90;999.90;;;8.90;99.90;;;;;;5052681;28;20171;-66
2022/11/04 07:37:27;;;;;;;1999.90;999.90;;;9.00;99.90;;;;;;5052370;28;20680;-66
2022/11/04 07:39:53;;;;;;;1999.90;999.90;;;9.00;99.90;;;;;;5053349;28;20201;-67
2022/11/04 07:42:19;;;;;;;1999.90;999.90;;;9.10;99.90;;;;;;5053088;28;20206;-67
2022/11/04 07:44:46;;;;;;;1999.90;999.90;;;9.20;99.90;;;;;;5052766;28;20531;-66
2022/11/04 07:47:11;;;;;;;1999.90;999.90;;;9.30;99.90;;;;;;5052287;28;20416;-66
2022/11/04 07:49:37;;;;;;;1999.90;999.90;;;9.30;99.90;;;;;;5052204;28;20417;-66
2022/11/04 07:52:03;;;;;;;1999.90;999.90;;;9.40;99.90;;;;;;5052338;28;20186;-67
2022/11/04 07:54:28;;;;;;;1999.90;999.90;;;9.40;99.90;;;;;;5052143;28;20202;-66
2022/11/04 07:56:54;;;;;;;1999.90;999.90;;;9.50;99.90;;;;;;5052200;28;21008;-66
2022/11/04 07:59:20;;;;;;;1999.90;999.90;;;9.50;99.90;;;;;;5052176;28;20202;-66
2022/11/04 08:01:45;;;;;;;1999.90;999.90;;;9.60;99.90;;;;;;5051665;28;20192;-66
2022/11/04 08:04:11;;;;;;;1999.90;999.90;;;9.60;99.90;;;;;;5052148;28;20187;-65
2022/11/04 08:06:37;;;;;;;1999.90;999.90;;;9.70;99.90;;;;;;5051867;28;20177;-66
2022/11/04 08:09:03;;;;;;;1999.90;999.90;;;9.70;99.90;;;;;;5052226;28;20579;-67
2022/11/04 08:11:29;;;;;;;1999.90;999.90;;;9.80;99.90;;;;;;5052636;28;20424;-68
2022/11/04 08:13:55;;;;;;;1999.90;999.90;;;9.90;99.90;;;;;;5052543;28;20427;-67
2022/11/04 08:16:23;;;;;;;1999.90;999.90;;;10.00;99.90;;;;;;5052069;28;20199;-68
2022/11/04 08:18:51;;;;;;;1999.90;999.90;;;10.10;99.90;;;;;;5051954;28;20180;-66
2022/11/04 08:21:17;;;;;;;1999.90;999.90;;;10.10;99.90;;;;;;5098614;22;20486;-70
2022/11/04 08:23:44;;;;;;;1999.90;999.90;;;9.90;99.90;;;;;;5092209;28;20436;-70
2022/11/04 08:26:13;;;;;;;1999.90;999.90;;;9.90;99.90;;;;;;5092181;28;20414;-70
2022/11/04 08:28:39;;;;;;;1999.90;999.90;;;10.00;99.90;;;;;;5092107;28;20398;-70
2022/11/04 08:31:16;;;;;;;1999.90;999.90;;;10.00;99.90;;;;;;5092131;28;20476;-70
2022/11/04 08:33:42;;;;;;;1999.90;999.90;;;10.20;99.90;;;;;;5092271;28;20449;-71
2022/11/04 08:36:11;;;;;;;1999.90;999.90;;;10.30;99.90;;;;;;5092120;28;20457;-71
2022/11/04 08:38:37;;;;;;;1999.90;999.90;;;10.40;99.90;;;;;;5092977;28;20173;-70
2022/11/04 08:41:06;;;;;;;1999.90;999.90;;;10.50;99.90;;;;;;5092880;28;20427;-70
2022/11/04 08:43:33;;;;;;;1999.90;999.90;;;10.60;99.90;;;;;;5092534;28;20567;-71
2022/11/04 08:45:58;;;;;;;1999.90;999.90;;;10.70;99.90;;;;;;5092311;28;20497;-71
2022/11/04 08:48:24;;;;;;;1999.90;999.90;;;10.80;99.90;;;;;;5092251;28;20494;-70
2022/11/04 08:50:51;;;;;;;1999.90;999.90;;;10.90;99.90;;;;;;5092158;28;20216;-71
2022/11/04 08:53:17;;;;;;;1999.90;999.90;;;11.00;99.90;;;;;;5092251;28;20214;-70
2022/11/04 08:55:43;;;;;;;1999.90;999.90;;;11.10;99.90;;;;;;5091952;28;20523;-71
2022/11/04 08:58:08;;;;;;;1999.90;999.90;;;11.10;99.90;;;;;;5092014;28;20158;-72
2022/11/04 09:00:35;;;;;;;1999.90;999.90;;;11.30;99.90;;;;;;5091998;28;20186;-70
2022/11/04 09:03:01;;;;;;;1999.90;999.90;;;11.40;99.90;;;;;;5091892;28;20261;-71
2022/11/04 09:05:27;;;;;;;1999.90;999.90;;;11.50;99.90;;;;;;5092069;28;20490;-71
2022/11/04 09:07:54;;;;;;;1999.90;999.90;;;11.70;99.90;;;;;;5091842;28;20801;-71
2022/11/04 09:10:19;;;;;;;1999.90;999.90;;;11.80;99.90;;;;;;5091811;28;20943;-70
2022/11/04 09:12:45;;;;;;;1999.90;999.90;;;11.90;99.90;;;;;;5094269;28;20404;-71
2022/11/04 09:15:11;;;;;;;1999.90;999.90;;;11.90;99.90;;;;;;5095793;28;20553;-70
2022/11/04 09:17:37;;;;;;;1999.90;999.90;;;12.00;99.90;;;;;;5095464;28;20205;-72
2022/11/04 09:20:04;;;;;;;1999.90;999.90;;;12.00;99.90;;;;;;5095510;28;20438;-70
2022/11/04 09:22:30;;;;;;;1999.90;999.90;;;12.10;99.90;;;;;;5095814;28;20167;-70
2022/11/04 09:24:56;;;;;;;1999.90;999.90;;;12.10;99.90;;;;;;5095544;28;20401;-70
2022/11/04 09:27:22;;;;;;;1999.90;999.90;;;12.20;99.90;;;;;;5095242;28;20477;-71
2022/11/04 09:29:47;;;;;;;1999.90;999.90;;;12.30;99.90;;;;;;5095317;28;20190;-71
2022/11/04 09:32:13;;;;;;;1999.90;999.90;;;12.40;99.90;;;;;;5095379;28;20171;-70
2022/11/04 09:34:38;;;;;;;1999.90;999.90;;;12.40;99.90;;;;;;5095352;28;20170;-71
2022/11/04 09:37:04;;;;;;;1999.90;999.90;;;12.40;99.90;;;;;;5094981;28;20269;-71
2022/11/04 09:39:30;;;;;;;1999.90;999.90;;;12.40;99.90;;;;;;5095427;28;20579;-70
2022/11/04 09:42:09;;;;;;;1999.90;999.90;;;12.50;99.90;;;;;;5095238;28;20555;-71
2022/11/04 09:44:35;;;;;;;1999.90;999.90;;;12.60;99.90;;;;;;5095203;28;20227;-71
2022/11/04 09:47:02;;;;;;;1999.90;999.90;;;12.80;99.90;;;;;;5094740;28;20406;-71
2022/11/04 09:49:34;;;;;;;1999.90;999.90;;;13.00;99.90;;;;;;5094898;28;20632;-70
2022/11/04 09:52:07;;;;;;;1999.90;999.90;;;13.10;99.90;;;;;;5094928;28;20765;-71
2022/11/04 09:54:47;;;;;;;1999.90;999.90;;;13.20;99.90;;;;;;5094954;28;20492;-71
2022/11/04 09:57:17;;;;;;;1999.90;999.90;;;13.20;99.90;;;;;;5094914;28;20944;-71
2022/11/04 09:59:43;;;;;;;1999.90;999.90;;;13.20;99.90;;;;;;5094930;28;21004;-71
2022/11/04 10:02:32;;;;;;;1999.90;999.90;;;13.10;99.90;;;;;;5094773;28;20503;-71
2022/11/04 10:05:30;;;;;;;1999.90;999.90;;;13.20;99.90;;;;;;5094839;28;20440;-71
2022/11/04 10:08:25;;;;;;;1999.90;999.90;;;13.20;99.90;;;;;;5094422;28;20927;-71
2022/11/04 10:11:09;;;;;;;1999.90;999.90;;;13.40;99.90;;;;;;5022262;28;20799;-71
2022/11/04 10:14:09;;;;;;;1999.90;999.90;;;13.40;99.90;;;;;;5094651;28;20596;-71
2022/11/04 10:16:53;;;;;;;1999.90;999.90;;;13.60;99.90;;;;;;5093949;28;20471;-71
2022/11/04 10:19:24;;;;;;;1999.90;999.90;;;13.60;99.90;;;;;;5094488;28;20424;-70
2022/11/04 10:22:14;;;;;;;1999.90;999.90;;;13.70;99.90;;;;;;5094373;28;20433;-71
2022/11/04 10:24:58;;;;;;;1999.90;999.90;;;13.70;99.90;;;;;;5093769;28;20465;-71
2022/11/04 10:27:28;;;;;;;1999.90;999.90;;;13.70;99.90;;;;;;5094102;28;20740;-71
2022/11/04 10:30:16;;;;;;;1999.90;999.90;;;13.70;99.90;;;;;;5094057;28;20421;-70
2022/11/04 10:32:51;;;;;;;1999.90;999.90;;;13.70;99.90;;;;;;5094079;28;20938;-70
2022/11/04 10:35:31;;;;;;;1999.90;999.90;;;13.60;99.90;;;;;;5094257;28;20402;-70
2022/11/04 10:38:12;;;;;;;1999.90;999.90;;;13.50;99.90;;;;;;5093852;28;20449;-71
2022/11/04 10:40:40;;;;;;;1999.90;999.90;;;13.40;99.90;;;;;;5094098;28;20426;-71
2022/11/04 10:43:12;;;;;;;1999.90;999.90;;;13.40;99.90;;;;;;5093980;28;20895;-71
2022/11/04 10:46:07;;;;;;;1999.90;999.90;;;13.50;99.90;;;;;;5093771;28;20430;-71
2022/11/04 10:48:44;;;;;;;1999.90;999.90;;;13.50;99.90;;;;;;5093068;28;20777;-71
2022/11/04 10:51:10;;;;;;;1999.90;999.90;;;13.60;99.90;;;;;;5093640;28;20493;-71
2022/11/04 10:53:36;;;;;;;1999.90;999.90;;;13.60;99.90;;;;;;5093713;28;20404;-71
2022/11/04 10:56:06;;;;;;;1999.90;999.90;;;13.70;99.90;;;;;;5093470;28;20196;-71
2022/11/04 10:58:38;;;;;;;1999.90;999.90;;;13.90;99.90;;;;;;5093521;28;20409;-71
2022/11/04 11:01:45;;;;;;;1999.90;999.90;;;14.10;99.90;;;;;;5093413;28;20442;-71
2022/11/04 11:04:43;;;;;;;1999.90;999.90;;;14.40;99.90;;;;;;5093525;28;20400;-70
2022/11/04 11:07:10;;;;;;;1999.90;999.90;;;14.60;99.90;;;;;;5090394;28;20397;-70
2022/11/04 11:09:48;;;;;;;1999.90;999.90;;;14.60;99.90;;;;;;5093003;28;20410;-70
2022/11/04 11:12:15;;;;;;;1999.90;999.90;;;14.70;99.90;;;;;;5093141;28;20405;-70
2022/11/04 11:14:41;;;;;;;1999.90;999.90;;;14.60;99.90;;;;;;5092537;28;20500;-69
2022/11/04 11:17:13;;;;;;;1999.90;999.90;;;14.60;99.90;;;;;;5092746;28;20450;-70
2022/11/04 11:19:58;;;;;;;1999.90;999.90;;;14.40;99.90;;;;;;5092560;28;20413;-70
2022/11/04 11:22:37;;;;;;;1999.90;999.90;;;14.40;99.90;;;;;;5092914;28;20546;-70
2022/11/04 11:25:23;;;;;;;1999.90;999.90;;;14.40;99.90;;;;;;5092780;28;20394;-70
2022/11/04 11:27:59;;;;;;;1999.90;999.90;;;14.60;99.90;;;;;;5092197;28;20405;-70
2022/11/04 11:30:30;;;;;;;1999.90;999.90;;;14.70;99.90;;;;;;5092935;28;20452;-70
2022/11/04 11:33:02;;;;;;;1999.90;999.90;;;14.90;99.90;;;;;;5092715;28;20392;-70
2022/11/04 11:35:40;;;;;;;1999.90;999.90;;;15.10;99.90;;;;;;5091080;28;20401;-70
2022/11/04 11:38:17;;;;;;;1999.90;999.90;;;15.50;99.90;;;;;;5092538;28;20452;-70
2022/11/04 11:40:45;;;;;;;1999.90;999.90;;;16.00;99.90;;;;;;5092915;28;20455;-70
2022/11/04 11:43:27;;;;;;;1999.90;999.90;;;16.30;99.90;;;;;;5091546;28;20420;-70
2022/11/04 11:45:53;;;;;;;1999.90;999.90;;;16.60;99.90;;;;;;5092754;28;20766;-70
2022/11/04 11:48:37;;;;;;;1999.90;999.90;;;17.20;99.90;;;;;;5092714;28;20405;-70
2022/11/04 11:51:03;;;;;;;1999.90;999.90;;;18.00;99.90;;;;;;5092668;28;20431;-70
2022/11/04 11:53:29;;;;;;;1999.90;999.90;;;19.20;99.90;;;;;;5092703;28;20960;-70
2022/11/04 11:56:22;;;;;;;1999.90;999.90;;;19.90;99.90;;;;;;5092057;28;20447;-70
2022/11/04 11:59:06;;;;;;;1999.90;999.90;;;20.70;99.90;;;;;;5091401;28;20404;-70
2022/11/04 12:01:41;;;;;;;1999.90;999.90;;;21.10;99.90;;;;;;5092310;28;20822;-70
2022/11/04 12:04:07;;;;;;;1999.90;999.90;;;21.40;99.90;;;;;;5092153;28;20402;-70
2022/11/04 12:06:57;;;;;;;1999.90;999.90;;;21.20;99.90;;;;;;5091472;28;20973;-70
2022/11/04 12:09:34;;;;;;;1999.90;999.90;;;21.10;99.90;;;;;;5091882;28;20401;-70
2022/11/04 12:12:17;;;;;;;1999.90;999.90;;;20.80;99.90;;;;;;5091489;28;20411;-70
2022/11/04 12:15:17;;;;;;;1999.90;999.90;;;20.30;99.90;;;;;;5092058;28;20464;-70
2022/11/04 12:17:51;;;;;;;1999.90;999.90;;;20.20;99.90;;;;;;5091464;28;20452;-70
2022/11/04 12:20:24;;;;;;;1999.90;999.90;;;20.50;99.90;;;;;;5091357;28;20517;-70
2022/11/04 12:23:08;;;;;;;1999.90;999.90;;;20.50;99.90;;;;;;5091890;28;20409;-70
2022/11/04 12:25:42;;;;;;;1999.90;999.90;;;20.20;99.90;;;;;;5091769;28;20408;-70
2022/11/04 12:28:38;;;;;;;1999.90;999.90;;;19.70;99.90;;;;;;5091264;28;20414;-70
2022/11/04 12:31:13;;;;;;;1999.90;999.90;;;19.10;99.90;;;;;;5091593;28;20425;-70
2022/11/04 12:33:57;;;;;;;1999.90;999.90;;;18.40;99.90;;;;;;5091720;28;20394;-70
2022/11/04 12:36:58;;;;;;;1999.90;999.90;;;18.10;99.90;;;;;;5091555;28;20571;-70
2022/11/04 12:39:39;;;;;;;1999.90;999.90;;;17.70;99.90;;;;;;5091448;28;20392;-70
2022/11/04 12:42:42;;;;;;;1999.90;999.90;;;17.30;99.90;;;;;;5091141;28;20398;-70
2022/11/04 12:45:08;;;;;;;1999.90;999.90;;;17.00;99.90;;;;;;5091619;28;20399;-70
2022/11/04 12:47:44;;;;;;;1999.90;999.90;;;17.10;99.90;;;;;;5093431;28;20484;-70
2022/11/04 12:50:13;;;;;;;1999.90;999.90;;;17.00;99.90;;;;;;5095302;28;20289;-70
2022/11/04 12:52:39;;;;;;;1999.90;999.90;;;16.80;99.90;;;;;;5095636;28;20470;-70
2022/11/04 12:55:35;;;;;;;1999.90;999.90;;;16.00;99.90;;;;;;5095682;28;20915;-70
2022/11/04 12:58:29;;;;;;;1999.90;999.90;;;15.50;99.90;;;;;;5094875;28;20173;-70